sensor_id;sensor_type;location;lat;lon;timestamp;pressure;altitude;pressure_sealevel;temperature;humidity
59411;BME280;45215;32.610;-115.482;2022-10-22T00:01:36;100698.06;;;22.13;51.15
59411;BME280;45215;32.610;-115.482;2022-10-22T00:04:04;100700.13;;;22.32;50.25
59411;BME280;45215;32.610;-115.482;2022-10-22T00:06:31;100699.56;;;22.58;49.25
59411;BME280;45215;32.610;-115.482;2022-10-22T00:08:57;100680.91;;;22.20;43.82
59411;BME280;45215;32.610;-115.482;2022-10-22T00:11:24;100678.69;;;22.09;51.34
59411;BME280;45215;32.610;-115.482;2022-10-22T00:13:50;100690.63;;;22.36;50.30
59411;BME280;45215;32.610;-115.482;2022-10-22T00:16:16;100688.13;;;22.56;49.33
59411;BME280;45215;32.610;-115.482;2022-10-22T00:18:42;100677.16;;;22.21;44.97
59411;BME280;45215;32.610;-115.482;2022-10-22T00:21:08;100675.88;;;22.17;51.20
59411;BME280;45215;32.610;-115.482;2022-10-22T00:23:35;100675.91;;;22.39;49.95
59411;BME280;45215;32.610;-115.482;2022-10-22T00:26:01;100685.03;;;22.59;49.12
59411;BME280;45215;32.610;-115.482;2022-10-22T00:28:27;100672.53;;;22.15;45.50
59411;BME280;45215;32.610;-115.482;2022-10-22T00:30:58;100676.31;;;22.21;50.88
59411;BME280;45215;32.610;-115.482;2022-10-22T00:33:25;100677.75;;;22.38;49.60
59411;BME280;45215;32.610;-115.482;2022-10-22T00:35:52;100684.81;;;22.61;49.19
59411;BME280;45215;32.610;-115.482;2022-10-22T00:38:18;100659.78;;;22.09;45.94
59411;BME280;45215;32.610;-115.482;2022-10-22T00:40:45;100681.47;;;22.16;51.20
59411;BME280;45215;32.610;-115.482;2022-10-22T00:43:12;100669.31;;;22.26;49.97
59411;BME280;45215;32.610;-115.482;2022-10-22T00:45:39;100682.91;;;22.55;49.26
59411;BME280;45215;32.610;-115.482;2022-10-22T00:50:42;100677.31;;;22.13;51.09
59411;BME280;45215;32.610;-115.482;2022-10-22T00:53:35;100684.75;;;22.33;50.01
59411;BME280;45215;32.610;-115.482;2022-10-22T00:56:01;100682.06;;;22.54;49.07
59411;BME280;45215;32.610;-115.482;2022-10-22T00:58:29;100674.66;;;22.20;46.21
59411;BME280;45215;32.610;-115.482;2022-10-22T01:00:57;100679.25;;;22.19;50.96
59411;BME280;45215;32.610;-115.482;2022-10-22T01:03:23;100686.06;;;22.37;49.72
59411;BME280;45215;32.610;-115.482;2022-10-22T01:05:56;100682.72;;;22.56;48.84
59411;BME280;45215;32.610;-115.482;2022-10-22T01:14:20;100678.22;;;22.42;49.45
59411;BME280;45215;32.610;-115.482;2022-10-22T01:22:38;100680.50;;;22.23;50.34
59411;BME280;45215;32.610;-115.482;2022-10-22T01:25:28;100678.84;;;22.44;49.59
59411;BME280;45215;32.610;-115.482;2022-10-22T01:28:21;100680.91;;;22.20;44.26
59411;BME280;45215;32.610;-115.482;2022-10-22T01:30:52;100679.47;;;22.03;51.15
59411;BME280;45215;32.610;-115.482;2022-10-22T01:33:21;100687.84;;;22.29;50.01
59411;BME280;45215;32.610;-115.482;2022-10-22T01:35:50;100678.84;;;22.44;48.92
59411;BME280;45215;32.610;-115.482;2022-10-22T01:38:20;100692.66;;;22.13;44.62
59411;BME280;45215;32.610;-115.482;2022-10-22T01:40:49;100699.88;;;22.05;51.07
59411;BME280;45215;32.610;-115.482;2022-10-22T01:43:16;100702.22;;;22.30;49.71
59411;BME280;45215;32.610;-115.482;2022-10-22T01:50:57;100702.13;;;22.02;51.02
59411;BME280;45215;32.610;-115.482;2022-10-22T01:56:33;100707.44;;;22.53;47.95
59411;BME280;45215;32.610;-115.482;2022-10-22T01:59:07;100698.38;;;22.03;48.63
59411;BME280;45215;32.610;-115.482;2022-10-22T02:04:28;100700.22;;;22.39;49.51
59411;BME280;45215;32.610;-115.482;2022-10-22T02:07:00;100704.53;;;22.55;46.47
59411;BME280;45215;32.610;-115.482;2022-10-22T02:09:28;100713.53;;;22.04;48.78
59411;BME280;45215;32.610;-115.482;2022-10-22T02:11:56;100710.19;;;22.17;50.25
59411;BME280;45215;32.610;-115.482;2022-10-22T02:14:24;100706.47;;;22.39;49.26
59411;BME280;45215;32.610;-115.482;2022-10-22T02:16:52;100713.59;;;22.47;46.33
59411;BME280;45215;32.610;-115.482;2022-10-22T02:19:39;100720.00;;;22.03;50.07
59411;BME280;45215;32.610;-115.482;2022-10-22T02:22:07;100715.75;;;22.15;50.28
59411;BME280;45215;32.610;-115.482;2022-10-22T02:24:33;100709.06;;;22.33;49.45
59411;BME280;45215;32.610;-115.482;2022-10-22T02:30:13;100715.72;;;21.94;50.25
59411;BME280;45215;32.610;-115.482;2022-10-22T02:32:36;100720.16;;;22.16;50.39
59411;BME280;45215;32.610;-115.482;2022-10-22T02:35:06;100713.66;;;22.32;49.30
59411;BME280;45215;32.610;-115.482;2022-10-22T02:37:35;100717.47;;;22.38;44.36
59411;BME280;45215;32.610;-115.482;2022-10-22T02:40:02;100719.72;;;21.98;50.16
59411;BME280;45215;32.610;-115.482;2022-10-22T02:42:29;100716.97;;;22.13;50.36
59411;BME280;45215;32.610;-115.482;2022-10-22T02:44:55;100713.09;;;22.37;49.19
59411;BME280;45215;32.610;-115.482;2022-10-22T02:47:21;100711.97;;;22.52;48.05
59411;BME280;45215;32.610;-115.482;2022-10-22T02:49:47;100696.00;;;21.93;47.40
59411;BME280;45215;32.610;-115.482;2022-10-22T02:52:14;100703.22;;;22.08;50.77
59411;BME280;45215;32.610;-115.482;2022-10-22T02:54:40;100692.63;;;22.27;49.35
59411;BME280;45215;32.610;-115.482;2022-10-22T02:57:06;100690.97;;;22.48;48.67
59411;BME280;45215;32.610;-115.482;2022-10-22T02:59:32;100693.78;;;22.40;44.06
59411;BME280;45215;32.610;-115.482;2022-10-22T03:01:58;100691.69;;;21.99;50.07
59411;BME280;45215;32.610;-115.482;2022-10-22T03:04:25;100700.38;;;22.16;49.99
59411;BME280;45215;32.610;-115.482;2022-10-22T03:06:51;100704.16;;;22.36;49.12
59411;BME280;45215;32.610;-115.482;2022-10-22T03:09:17;100699.56;;;22.58;48.40
59411;BME280;45215;32.610;-115.482;2022-10-22T03:11:43;100691.56;;;22.07;45.95
59411;BME280;45215;32.610;-115.482;2022-10-22T03:14:09;100704.72;;;22.10;50.63
59411;BME280;45215;32.610;-115.482;2022-10-22T03:16:35;100711.34;;;22.29;49.18
59411;BME280;45215;32.610;-115.482;2022-10-22T03:19:01;100708.56;;;22.44;48.80
59411;BME280;45215;32.610;-115.482;2022-10-22T03:21:43;100698.28;;;22.33;43.72
59411;BME280;45215;32.610;-115.482;2022-10-22T03:24:13;100712.94;;;22.02;50.43
59411;BME280;45215;32.610;-115.482;2022-10-22T03:26:42;100704.13;;;22.15;49.57
59411;BME280;45215;32.610;-115.482;2022-10-22T03:29:13;100718.50;;;22.37;49.10
59411;BME280;45215;32.610;-115.482;2022-10-22T03:31:40;100715.56;;;22.53;48.02
59411;BME280;45215;32.610;-115.482;2022-10-22T03:34:06;100705.56;;;21.96;47.25
59411;BME280;45215;32.610;-115.482;2022-10-22T03:36:33;100724.34;;;22.04;50.24
59411;BME280;45215;32.610;-115.482;2022-10-22T03:39:00;100709.97;;;22.18;49.15
59411;BME280;45215;32.610;-115.482;2022-10-22T03:41:27;100718.38;;;22.45;48.91
59411;BME280;45215;32.610;-115.482;2022-10-22T03:43:54;100720.31;;;22.51;45.25
59411;BME280;45215;32.610;-115.482;2022-10-22T03:46:22;100720.53;;;21.98;49.32
59411;BME280;45215;32.610;-115.482;2022-10-22T03:48:48;100719.44;;;22.08;50.14
59411;BME280;45215;32.610;-115.482;2022-10-22T03:51:14;100713.03;;;22.30;48.75
59411;BME280;45215;32.610;-115.482;2022-10-22T03:53:40;100719.00;;;22.47;48.55
59411;BME280;45215;32.610;-115.482;2022-10-22T03:56:08;100714.38;;;22.19;43.92
59411;BME280;45215;32.610;-115.482;2022-10-22T03:58:35;100709.19;;;22.03;50.55
59411;BME280;45215;32.610;-115.482;2022-10-22T04:01:10;100707.91;;;22.20;49.14
59411;BME280;45215;32.610;-115.482;2022-10-22T04:03:36;100713.97;;;22.44;48.69
59411;BME280;45215;32.610;-115.482;2022-10-22T04:06:04;100705.75;;;22.52;45.06
59411;BME280;45215;32.610;-115.482;2022-10-22T04:08:31;100702.22;;;21.94;49.29
59411;BME280;45215;32.610;-115.482;2022-10-22T04:10:57;100717.34;;;22.10;49.79
59411;BME280;45215;32.610;-115.482;2022-10-22T04:13:24;100710.94;;;22.32;48.69
59411;BME280;45215;32.610;-115.482;2022-10-22T04:15:50;100708.19;;;22.47;48.30
59411;BME280;45215;32.610;-115.482;2022-10-22T04:18:17;100712.06;;;22.01;45.80
59411;BME280;45215;32.610;-115.482;2022-10-22T04:20:44;100717.28;;;22.03;50.48
59411;BME280;45215;32.610;-115.482;2022-10-22T04:23:11;100708.97;;;22.19;49.14
59411;BME280;45215;32.610;-115.482;2022-10-22T04:25:37;100717.72;;;22.43;48.44
59411;BME280;45215;32.610;-115.482;2022-10-22T04:28:08;100719.91;;;22.54;45.83
59411;BME280;45215;32.610;-115.482;2022-10-22T04:30:35;100717.66;;;22.00;48.28
59411;BME280;45215;32.610;-115.482;2022-10-22T04:33:02;100723.13;;;22.06;50.00
59411;BME280;45215;32.610;-115.482;2022-10-22T04:35:28;100726.34;;;22.32;48.84
59411;BME280;45215;32.610;-115.482;2022-10-22T04:37:55;100734.22;;;22.48;48.10
59411;BME280;45215;32.610;-115.482;2022-10-22T04:40:21;100713.47;;;22.34;43.38
59411;BME280;45215;32.610;-115.482;2022-10-22T04:42:47;100737.41;;;22.00;49.82
59411;BME280;45215;32.610;-115.482;2022-10-22T04:45:13;100733.38;;;22.11;49.44
59411;BME280;45215;32.610;-115.482;2022-10-22T04:47:40;100737.16;;;22.32;48.88
59411;BME280;45215;32.610;-115.482;2022-10-22T04:50:07;100739.63;;;22.48;48.30
59411;BME280;45215;32.610;-115.482;2022-10-22T04:52:33;100736.38;;;22.38;43.66
59411;BME280;45215;32.610;-115.482;2022-10-22T04:54:59;100734.91;;;21.99;49.69
59411;BME280;45215;32.610;-115.482;2022-10-22T04:57:29;100737.69;;;22.05;49.37
59411;BME280;45215;32.610;-115.482;2022-10-22T04:59:55;100745.25;;;22.32;48.28
59411;BME280;45215;32.610;-115.482;2022-10-22T05:02:22;100748.38;;;22.50;48.05
59411;BME280;45215;32.610;-115.482;2022-10-22T05:04:48;100750.09;;;22.36;43.32
59411;BME280;45215;32.610;-115.482;2022-10-22T05:07:14;100752.56;;;22.01;49.92
59411;BME280;45215;32.610;-115.482;2022-10-22T05:09:40;100746.44;;;22.08;49.18
59411;BME280;45215;32.610;-115.482;2022-10-22T05:12:06;100760.44;;;22.33;48.58
59411;BME280;45215;32.610;-115.482;2022-10-22T05:14:32;100752.28;;;22.47;48.05
59411;BME280;45215;32.610;-115.482;2022-10-22T05:16:59;100758.31;;;22.28;43.32
59411;BME280;45215;32.610;-115.482;2022-10-22T05:19:29;100763.38;;;22.01;50.11
59411;BME280;45215;32.610;-115.482;2022-10-22T05:21:58;100755.66;;;22.13;49.08
59411;BME280;45215;32.610;-115.482;2022-10-22T05:24:25;100759.59;;;22.32;48.74
59411;BME280;45215;32.610;-115.482;2022-10-22T05:26:54;100756.47;;;22.50;47.99
59411;BME280;45215;32.610;-115.482;2022-10-22T05:29:21;100760.31;;;22.41;43.38
59411;BME280;45215;32.610;-115.482;2022-10-22T05:31:47;100757.34;;;21.99;49.79
59411;BME280;45215;32.610;-115.482;2022-10-22T05:34:14;100758.91;;;22.09;48.95
59411;BME280;45215;32.610;-115.482;2022-10-22T05:36:40;100757.09;;;22.31;48.42
59411;BME280;45215;32.610;-115.482;2022-10-22T05:39:06;100753.97;;;22.48;47.88
59411;BME280;45215;32.610;-115.482;2022-10-22T05:41:33;100760.25;;;22.56;45.03
59411;BME280;45215;32.610;-115.482;2022-10-22T05:44:03;100761.53;;;22.02;48.50
59411;BME280;45215;32.610;-115.482;2022-10-22T05:46:33;100757.44;;;22.06;49.46
59411;BME280;45215;32.610;-115.482;2022-10-22T05:49:03;100754.91;;;22.19;48.52
59411;BME280;45215;32.610;-115.482;2022-10-22T05:51:34;100754.72;;;22.42;47.95
59411;BME280;45215;32.610;-115.482;2022-10-22T05:54:03;100753.13;;;22.48;44.20
59411;BME280;45215;32.610;-115.482;2022-10-22T05:56:30;100757.16;;;22.01;48.62
59411;BME280;45215;32.610;-115.482;2022-10-22T05:58:57;100752.56;;;22.01;49.37
59411;BME280;45215;32.610;-115.482;2022-10-22T06:01:26;100758.44;;;22.20;48.52
59411;BME280;45215;32.610;-115.482;2022-10-22T06:04:00;100758.66;;;22.40;48.00
59411;BME280;45215;32.610;-115.482;2022-10-22T06:06:32;100756.72;;;22.55;46.54
59411;BME280;45215;32.610;-115.482;2022-10-22T06:09:04;100744.69;;;22.00;47.50
59411;BME280;45215;32.610;-115.482;2022-10-22T06:11:32;100742.34;;;21.97;49.69
59411;BME280;45215;32.610;-115.482;2022-10-22T06:13:58;100748.91;;;22.24;48.74
59411;BME280;45215;32.610;-115.482;2022-10-22T06:16:24;100739.53;;;22.41;48.09
59411;BME280;45215;32.610;-115.482;2022-10-22T06:18:53;100737.41;;;22.37;43.75
59411;BME280;45215;32.610;-115.482;2022-10-22T06:21:19;100750.47;;;21.97;49.07
59411;BME280;45215;32.610;-115.482;2022-10-22T06:23:45;100735.91;;;21.98;49.40
59411;BME280;45215;32.610;-115.482;2022-10-22T06:26:11;100752.25;;;22.26;48.95
59411;BME280;45215;32.610;-115.482;2022-10-22T06:28:38;100734.72;;;22.37;48.20
59411;BME280;45215;32.610;-115.482;2022-10-22T06:31:04;100734.16;;;22.05;43.43
59411;BME280;45215;32.610;-115.482;2022-10-22T06:33:32;100740.59;;;21.89;50.15
59411;BME280;45215;32.610;-115.482;2022-10-22T06:36:10;100751.47;;;22.11;49.15
59411;BME280;45215;32.610;-115.482;2022-10-22T06:38:37;100753.19;;;22.33;48.78
59411;BME280;45215;32.610;-115.482;2022-10-22T06:41:08;100743.16;;;22.48;48.33
59411;BME280;45215;32.610;-115.482;2022-10-22T06:43:34;100739.06;;;22.01;46.20
59411;BME280;45215;32.610;-115.482;2022-10-22T06:46:06;100741.97;;;22.00;50.28
59411;BME280;45215;32.610;-115.482;2022-10-22T06:48:33;100749.50;;;22.19;49.19
59411;BME280;45215;32.610;-115.482;2022-10-22T06:51:03;100748.00;;;22.38;47.64
59411;BME280;45215;32.610;-115.482;2022-10-22T06:53:30;100741.81;;;21.57;41.93
59411;BME280;45215;32.610;-115.482;2022-10-22T06:55:56;100743.63;;;20.66;45.19
59411;BME280;45215;32.610;-115.482;2022-10-22T06:58:22;100736.97;;;21.00;51.38
59411;BME280;45215;32.610;-115.482;2022-10-22T07:00:49;100746.16;;;21.28;52.68
59411;BME280;45215;32.610;-115.482;2022-10-22T07:03:15;100739.66;;;21.00;45.66
59411;BME280;45215;32.610;-115.482;2022-10-22T07:05:41;100741.31;;;20.63;49.74
59411;BME280;45215;32.610;-115.482;2022-10-22T07:08:07;100734.63;;;20.97;53.42
59411;BME280;45215;32.610;-115.482;2022-10-22T07:10:35;100727.53;;;21.19;51.54
59411;BME280;45215;32.610;-115.482;2022-10-22T07:13:01;100721.09;;;20.59;45.60
59411;BME280;45215;32.610;-115.482;2022-10-22T07:15:27;100721.03;;;20.67;52.54
59411;BME280;45215;32.610;-115.482;2022-10-22T07:17:53;100727.38;;;20.97;53.94
59411;BME280;45215;32.610;-115.482;2022-10-22T07:20:19;100720.44;;;21.03;48.56
59411;BME280;45215;32.610;-115.482;2022-10-22T07:22:46;100721.72;;;20.46;49.26
59411;BME280;45215;32.610;-115.482;2022-10-22T07:25:12;100730.75;;;20.76;53.81
59411;BME280;45215;32.610;-115.482;2022-10-22T07:27:38;100728.84;;;21.08;53.62
59411;BME280;45215;32.610;-115.482;2022-10-22T07:30:05;100730.25;;;20.95;46.78
59411;BME280;45215;32.610;-115.482;2022-10-22T07:32:31;100724.78;;;20.43;49.87
59411;BME280;45215;32.610;-115.482;2022-10-22T07:34:57;100740.53;;;20.77;54.11
59411;BME280;45215;32.610;-115.482;2022-10-22T07:37:23;100746.38;;;21.04;53.84
59411;BME280;45215;32.610;-115.482;2022-10-22T07:39:49;100738.34;;;20.72;46.20
59411;BME280;45215;32.610;-115.482;2022-10-22T07:42:18;100739.75;;;20.45;51.70
59411;BME280;45215;32.610;-115.482;2022-10-22T07:44:44;100739.84;;;20.75;54.34
59411;BME280;45215;32.610;-115.482;2022-10-22T07:47:10;100747.03;;;21.06;53.30
59411;BME280;45215;32.610;-115.482;2022-10-22T07:49:37;100741.69;;;20.60;45.50
59411;BME280;45215;32.610;-115.482;2022-10-22T07:52:03;100738.19;;;20.51;52.22
59411;BME280;45215;32.610;-115.482;2022-10-22T07:54:29;100728.25;;;20.75;54.11
59411;BME280;45215;32.610;-115.482;2022-10-22T07:56:55;100736.63;;;21.03;52.82
59411;BME280;45215;32.610;-115.482;2022-10-22T07:59:21;100721.78;;;20.61;45.40
59411;BME280;45215;32.610;-115.482;2022-10-22T08:01:47;100724.06;;;20.49;52.54
59411;BME280;45215;32.610;-115.482;2022-10-22T08:04:14;100727.03;;;20.77;54.37
59411;BME280;45215;32.610;-115.482;2022-10-22T08:06:40;100716.56;;;21.05;53.03
59411;BME280;45215;32.610;-115.482;2022-10-22T08:09:06;100709.44;;;20.66;45.22
59411;BME280;45215;32.610;-115.482;2022-10-22T08:11:32;100714.63;;;20.45;52.13
59411;BME280;45215;32.610;-115.482;2022-10-22T08:13:59;100712.06;;;20.75;53.94
59411;BME280;45215;32.610;-115.482;2022-10-22T08:16:25;100711.56;;;20.94;52.91
59411;BME280;45215;32.610;-115.482;2022-10-22T08:18:51;100716.94;;;20.79;45.80
59411;BME280;45215;32.610;-115.482;2022-10-22T08:21:17;100724.47;;;20.38;50.98
59411;BME280;45215;32.610;-115.482;2022-10-22T08:23:43;100714.53;;;20.61;54.07
59411;BME280;45215;32.610;-115.482;2022-10-22T08:26:10;100718.81;;;20.93;53.20
59411;BME280;45215;32.610;-115.482;2022-10-22T08:28:36;100720.44;;;21.03;47.46
59411;BME280;45215;32.610;-115.482;2022-10-22T08:31:06;100707.63;;;20.36;48.63
59411;BME280;45215;32.610;-115.482;2022-10-22T08:33:33;100709.84;;;20.55;53.56
59411;BME280;45215;32.610;-115.482;2022-10-22T08:35:59;100694.69;;;20.77;53.63
59411;BME280;45215;32.610;-115.482;2022-10-22T08:38:25;100704.06;;;21.04;50.21
59411;BME280;45215;32.610;-115.482;2022-10-22T08:40:55;100695.66;;;20.38;45.56
59411;BME280;45215;32.610;-115.482;2022-10-22T08:43:51;100704.47;;;20.55;53.39
59411;BME280;45215;32.610;-115.482;2022-10-22T08:48:55;100704.97;;;20.97;50.10
59411;BME280;45215;32.610;-115.482;2022-10-22T08:51:23;100711.66;;;20.40;46.13
59411;BME280;45215;32.610;-115.482;2022-10-22T08:54:04;100709.69;;;20.57;53.18
59411;BME280;45215;32.610;-115.482;2022-10-22T08:56:34;100707.06;;;20.86;53.26
59411;BME280;45215;32.610;-115.482;2022-10-22T08:59:19;100706.16;;;21.17;49.88
59411;BME280;45215;32.610;-115.482;2022-10-22T09:01:50;100712.13;;;20.43;46.73
59411;BME280;45215;32.610;-115.482;2022-10-22T09:04:39;100719.25;;;20.59;53.51
59411;BME280;45215;32.610;-115.482;2022-10-22T09:07:09;100728.19;;;20.83;53.77
59411;BME280;45215;32.610;-115.482;2022-10-22T09:09:42;100723.44;;;21.08;52.02
59411;BME280;45215;32.610;-115.482;2022-10-22T09:12:15;100719.09;;;20.61;44.91
59411;BME280;45215;32.610;-115.482;2022-10-22T09:14:42;100716.50;;;20.44;51.94
59411;BME280;45215;32.610;-115.482;2022-10-22T09:17:20;100713.44;;;20.70;53.98
59411;BME280;45215;32.610;-115.482;2022-10-22T09:22:45;100705.00;;;20.74;45.94
59411;BME280;45215;32.610;-115.482;2022-10-22T09:25:28;100704.88;;;20.44;52.64
59411;BME280;45215;32.610;-115.482;2022-10-22T09:27:56;100708.25;;;20.69;54.65
59411;BME280;45215;32.610;-115.482;2022-10-22T09:30:30;100703.47;;;20.94;53.42
59411;BME280;45215;32.610;-115.482;2022-10-22T09:33:05;100692.56;;;20.87;47.55
59411;BME280;45215;32.610;-115.482;2022-10-22T09:35:52;100692.50;;;20.35;51.64
59411;BME280;45215;32.610;-115.482;2022-10-22T09:38:24;100692.13;;;20.61;54.95
59411;BME280;45215;32.610;-115.482;2022-10-22T09:40:54;100690.44;;;20.83;54.38
59411;BME280;45215;32.610;-115.482;2022-10-22T09:43:21;100691.94;;;21.00;51.15
59411;BME280;45215;32.610;-115.482;2022-10-22T09:45:55;100684.72;;;20.40;47.67
59411;BME280;45215;32.610;-115.482;2022-10-22T09:48:28;100686.81;;;20.53;53.93
59411;BME280;45215;32.610;-115.482;2022-10-22T09:53:57;100676.56;;;21.09;53.35
59411;BME280;45215;32.610;-115.482;2022-10-22T09:56:38;100678.03;;;20.50;46.58
59411;BME280;45215;32.610;-115.482;2022-10-22T09:59:14;100676.75;;;20.46;54.03
59411;BME280;45215;32.610;-115.482;2022-10-22T10:01:41;100683.63;;;20.72;54.94
59411;BME280;45215;32.610;-115.482;2022-10-22T10:04:10;100681.69;;;20.95;53.56
59411;BME280;45215;32.610;-115.482;2022-10-22T10:06:39;100688.09;;;21.03;48.80
59411;BME280;45215;32.610;-115.482;2022-10-22T10:09:30;100668.63;;;20.32;51.06
59411;BME280;45215;32.610;-115.482;2022-10-22T10:17:53;100653.78;;;21.11;51.62
59411;BME280;45215;32.610;-115.482;2022-10-22T10:21:14;100655.09;;;20.40;47.63
59411;BME280;45215;32.610;-115.482;2022-10-22T10:26:27;100647.84;;;20.78;55.02
59411;BME280;45215;32.610;-115.482;2022-10-22T10:41:01;100635.31;;;21.00;53.79
59411;BME280;45215;32.610;-115.482;2022-10-22T10:49:14;100633.88;;;20.60;54.99
59411;BME280;45215;32.610;-115.482;2022-10-22T10:51:59;100638.00;;;20.85;54.55
59411;BME280;45215;32.610;-115.482;2022-10-22T11:00:17;100625.47;;;20.55;54.91
59411;BME280;45215;32.610;-115.482;2022-10-22T11:03:04;100633.69;;;20.76;54.76
59411;BME280;45215;32.610;-115.482;2022-10-22T11:05:56;100631.59;;;21.01;53.36
59411;BME280;45215;32.610;-115.482;2022-10-22T11:08:33;100631.72;;;20.55;46.09
59411;BME280;45215;32.610;-115.482;2022-10-22T11:11:21;100638.56;;;20.43;53.85
59411;BME280;45215;32.610;-115.482;2022-10-22T11:14:01;100635.16;;;20.64;54.81
59411;BME280;45215;32.610;-115.482;2022-10-22T11:16:43;100630.91;;;20.84;53.60
59411;BME280;45215;32.610;-115.482;2022-10-22T11:24:51;100632.44;;;20.49;54.29
59411;BME280;45215;32.610;-115.482;2022-10-22T11:30:07;100643.47;;;20.92;53.36
59411;BME280;45215;32.610;-115.482;2022-10-22T11:32:38;100644.56;;;21.06;49.74
59411;BME280;45215;32.610;-115.482;2022-10-22T11:38:16;100635.97;;;20.49;54.76
59411;BME280;45215;32.610;-115.482;2022-10-22T11:41:10;100638.81;;;20.71;54.43
59411;BME280;45215;32.610;-115.482;2022-10-22T11:49:41;100631.00;;;20.38;52.26
59411;BME280;45215;32.610;-115.482;2022-10-22T11:52:37;100639.25;;;20.60;55.22
59411;BME280;45215;32.610;-115.482;2022-10-22T11:55:47;100643.75;;;20.82;54.41
59411;BME280;45215;32.610;-115.482;2022-10-22T11:58:42;100634.22;;;21.09;52.81
59411;BME280;45215;32.610;-115.482;2022-10-22T12:11:22;100635.13;;;21.02;53.91
59411;BME280;45215;32.610;-115.482;2022-10-22T12:16:43;100640.94;;;20.38;53.63
59411;BME280;45215;32.610;-115.482;2022-10-22T12:21:41;100638.25;;;20.76;55.13
59411;BME280;45215;32.610;-115.482;2022-10-22T12:24:13;100636.16;;;21.01;54.03
59411;BME280;45215;32.610;-115.482;2022-10-22T12:26:40;100636.88;;;20.94;48.47
59411;BME280;45215;32.610;-115.482;2022-10-22T12:29:11;100639.44;;;20.35;51.38
59411;BME280;45215;32.610;-115.482;2022-10-22T12:31:38;100646.38;;;20.53;55.37
59411;BME280;45215;32.610;-115.482;2022-10-22T12:34:05;100642.72;;;20.68;55.49
59411;BME280;45215;32.610;-115.482;2022-10-22T12:36:34;100644.31;;;20.92;54.55
59411;BME280;45215;32.610;-115.482;2022-10-22T12:39:02;100645.69;;;21.11;53.10
59411;BME280;45215;32.610;-115.482;2022-10-22T12:41:34;100631.97;;;20.45;47.94
59411;BME280;45215;32.610;-115.482;2022-10-22T12:44:02;100641.88;;;20.45;54.57
59411;BME280;45215;32.610;-115.482;2022-10-22T12:46:31;100644.28;;;20.63;55.79
59411;BME280;45215;32.610;-115.482;2022-10-22T12:49:04;100654.19;;;20.85;54.84
59411;BME280;45215;32.610;-115.482;2022-10-22T12:51:31;100650.97;;;21.05;53.88
59411;BME280;45215;32.610;-115.482;2022-10-22T12:54:06;100650.91;;;20.75;47.07
59411;BME280;45215;32.610;-115.482;2022-10-22T12:56:35;100650.59;;;20.32;52.86
59411;BME280;45215;32.610;-115.482;2022-10-22T12:59:51;100653.63;;;20.52;55.94
59411;BME280;45215;32.610;-115.482;2022-10-22T13:01:53;100675.16;;;20.75;55.10
59411;BME280;45215;32.610;-115.482;2022-10-22T13:12:09;100664.94;;;20.47;55.71
59411;BME280;45215;32.610;-115.482;2022-10-22T13:14:42;100667.50;;;20.64;55.91
59411;BME280;45215;32.610;-115.482;2022-10-22T13:19:46;100668.00;;;21.05;53.94
59411;BME280;45215;32.610;-115.482;2022-10-22T13:23:00;100671.34;;;20.46;47.93
59411;BME280;45215;32.610;-115.482;2022-10-22T13:25:33;100672.56;;;20.44;55.01
59411;BME280;45215;32.610;-115.482;2022-10-22T13:30:34;100678.16;;;20.80;55.04
59411;BME280;45215;32.610;-115.482;2022-10-22T13:33:29;100688.09;;;21.03;54.21
59411;BME280;45215;32.610;-115.482;2022-10-22T13:36:02;100685.44;;;20.94;48.79
59411;BME280;45215;32.610;-115.482;2022-10-22T13:38:29;100682.50;;;20.43;52.05
59411;BME280;45215;32.610;-115.482;2022-10-22T13:40:56;100684.31;;;20.51;55.84
59411;BME280;45215;32.610;-115.482;2022-10-22T13:43:24;100677.56;;;20.70;55.76
59411;BME280;45215;32.610;-115.482;2022-10-22T13:45:56;100679.94;;;20.88;54.46
59411;BME280;45215;32.610;-115.482;2022-10-22T13:48:24;100673.41;;;21.05;53.89
59411;BME280;45215;32.610;-115.482;2022-10-22T13:50:51;100669.88;;;20.82;47.68
59411;BME280;45215;32.610;-115.482;2022-10-22T13:53:21;100667.53;;;20.41;53.47
59411;BME280;45215;32.610;-115.482;2022-10-22T13:55:49;100661.88;;;20.50;56.07
59411;BME280;45215;32.610;-115.482;2022-10-22T13:58:18;100675.53;;;20.72;55.46
59411;BME280;45215;32.610;-115.482;2022-10-22T14:00:48;100674.56;;;20.88;54.62
59411;BME280;45215;32.610;-115.482;2022-10-22T14:03:17;100678.59;;;21.07;54.03
59411;BME280;45215;32.610;-115.482;2022-10-22T14:05:45;100673.59;;;20.95;48.53
59411;BME280;45215;32.610;-115.482;2022-10-22T14:08:14;100667.41;;;20.34;52.27
59411;BME280;45215;32.610;-115.482;2022-10-22T14:10:41;100668.66;;;20.46;55.71
59411;BME280;45215;32.610;-115.482;2022-10-22T14:13:11;100680.63;;;20.67;55.86
59411;BME280;45215;32.610;-115.482;2022-10-22T14:15:38;100676.38;;;20.87;54.82
59411;BME280;45215;32.610;-115.482;2022-10-22T14:18:06;100682.31;;;21.06;53.97
59411;BME280;45215;32.610;-115.482;2022-10-22T14:20:35;100681.88;;;21.17;50.38
59411;BME280;45215;32.610;-115.482;2022-10-22T14:23:15;100670.88;;;20.43;50.38
59411;BME280;45215;32.610;-115.482;2022-10-22T14:25:43;100679.75;;;20.52;55.31
59411;BME280;45215;32.610;-115.482;2022-10-22T14:28:10;100695.78;;;20.68;56.33
59411;BME280;45215;32.610;-115.482;2022-10-22T14:30:38;100693.59;;;20.86;54.84